Time;durP1;ratioP1;P1;durP2;ratioP2;P2;SDS_P1;SDS_P2;PMS_P1;PMS_P2;Temp;Humidity;BMP_temperature;BMP_pressure;BME280_temperature;BME280_humidity;BME280_pressure;Samples;Min_cycle;Max_cycle;Signal;HPM_P1;HPM_P2
2022/12/31 00:00:30;;;;;;;13.10;7.93;;;;;;;;;;5023315;28;20038;-84
2022/12/31 00:02:57;;;;;;;11.75;7.88;;;;;;;;;;5021272;28;20141;-84
2022/12/31 00:05:25;;;;;;;9.70;8.15;;;;;;;;;;5028996;28;20045;-85
2022/12/31 00:07:52;;;;;;;9.48;7.88;;;;;;;;;;5024600;28;20037;-84
2022/12/31 00:10:20;;;;;;;9.05;7.50;;;;;;;;;;5008290;28;20060;-84
2022/12/31 00:12:47;;;;;;;9.68;8.40;;;;;;;;;;5008943;28;20673;-84
2022/12/31 00:15:15;;;;;;;10.57;7.90;;;;;;;;;;5023289;28;20713;-83
2022/12/31 00:17:42;;;;;;;10.73;7.93;;;;;;;;;;5025418;28;20046;-84
2022/12/31 00:20:10;;;;;;;11.88;8.32;;;;;;;;;;5022397;28;20049;-83
2022/12/31 00:22:37;;;;;;;8.68;7.28;;;;;;;;;;5017172;28;20050;-84
2022/12/31 00:25:04;;;;;;;10.75;8.05;;;;;;;;;;5022965;28;20042;-83
2022/12/31 00:27:32;;;;;;;11.10;8.18;;;;;;;;;;5030708;28;20228;-83
2022/12/31 00:29:59;;;;;;;9.40;7.80;;;;;;;;;;5029437;28;20092;-83
2022/12/31 00:32:31;;;;;;;11.63;8.65;;;;;;;;;;5045805;28;20042;-83
2022/12/31 00:34:59;;;;;;;10.27;8.32;;;;;;;;;;5044264;28;20120;-83
2022/12/31 00:37:26;;;;;;;10.60;8.23;;;;;;;;;;5049077;28;20041;-85
2022/12/31 00:39:53;;;;;;;10.27;8.48;;;;;;;;;;5033017;28;20521;-84
2022/12/31 00:42:21;;;;;;;12.38;9.80;;;;;;;;;;5026225;28;20092;-84
2022/12/31 00:44:48;;;;;;;8.95;7.88;;;;;;;;;;5027300;28;20041;-84
2022/12/31 00:47:15;;;;;;;12.82;9.52;;;;;;;;;;5029739;28;20156;-83
2022/12/31 00:49:42;;;;;;;12.05;9.95;;;;;;;;;;5030430;28;20073;-83
2022/12/31 00:52:12;;;;;;;11.25;9.40;;;;;;;;;;5031445;28;20130;-84
2022/12/31 00:54:39;;;;;;;12.00;9.35;;;;;;;;;;5031968;28;20178;-84
2022/12/31 00:57:07;;;;;;;14.00;10.50;;;;;;;;;;5028495;28;20072;-83
2022/12/31 00:59:34;;;;;;;11.02;9.43;;;;;;;;;;5024598;28;20045;-83
2022/12/31 01:02:01;;;;;;;14.68;11.27;;;;;;;;;;5027750;28;20038;-84
2022/12/31 01:04:29;;;;;;;16.98;11.10;;;;;;;;;;5022393;28;20069;-84
2022/12/31 01:06:56;;;;;;;15.75;11.10;;;;;;;;;;5051033;28;20107;-84
2022/12/31 01:09:23;;;;;;;15.05;9.98;;;;;;;;;;5043297;28;20045;-84
2022/12/31 01:11:51;;;;;;;12.52;10.13;;;;;;;;;;5038513;28;20064;-85
2022/12/31 01:14:19;;;;;;;12.15;10.02;;;;;;;;;;5048726;28;20040;-84
2022/12/31 01:16:48;;;;;;;10.82;9.23;;;;;;;;;;5048585;28;20095;-84
2022/12/31 01:19:20;;;;;;;12.65;10.52;;;;;;;;;;5019762;28;20057;-84
2022/12/31 01:21:48;;;;;;;11.02;9.57;;;;;;;;;;5026650;28;20033;-84
2022/12/31 01:24:15;;;;;;;12.43;11.13;;;;;;;;;;5028294;28;20602;-84
2022/12/31 01:26:42;;;;;;;14.45;11.50;;;;;;;;;;5029833;28;20049;-84
2022/12/31 01:29:11;;;;;;;14.32;11.70;;;;;;;;;;5025346;28;20137;-85
2022/12/31 01:31:38;;;;;;;14.15;12.45;;;;;;;;;;5021676;28;20432;-84
2022/12/31 01:34:08;;;;;;;14.63;10.90;;;;;;;;;;5027037;28;20053;-85
2022/12/31 01:36:37;;;;;;;13.88;12.13;;;;;;;;;;5022812;28;20152;-84
2022/12/31 01:39:05;;;;;;;12.43;9.68;;;;;;;;;;5028926;28;20573;-86
2022/12/31 01:41:34;;;;;;;12.68;9.85;;;;;;;;;;5026541;28;20411;-84
2022/12/31 01:44:21;;;;;;;11.38;10.15;;;;;;;;;;5032133;28;20073;-84
2022/12/31 01:46:53;;;;;;;13.45;10.82;;;;;;;;;;5028981;28;20037;-85
2022/12/31 01:49:20;;;;;;;14.27;10.25;;;;;;;;;;5025131;28;20418;-83
2022/12/31 01:51:50;;;;;;;15.20;12.13;;;;;;;;;;5022237;28;20053;-84
2022/12/31 01:54:18;;;;;;;11.10;9.65;;;;;;;;;;5032117;28;20440;-84
2022/12/31 01:56:47;;;;;;;13.57;11.27;;;;;;;;;;5023725;28;20058;-83
2022/12/31 01:59:16;;;;;;;14.02;11.05;;;;;;;;;;5030839;28;20108;-84
2022/12/31 02:01:45;;;;;;;22.45;16.30;;;;;;;;;;5035783;28;20388;-83
2022/12/31 02:04:13;;;;;;;21.02;15.20;;;;;;;;;;5023367;28;20046;-83
2022/12/31 02:06:46;;;;;;;19.52;11.27;;;;;;;;;;5037980;28;20055;-84
2022/12/31 02:09:14;;;;;;;19.17;14.02;;;;;;;;;;5019435;28;20053;-84
2022/12/31 02:11:41;;;;;;;21.80;15.27;;;;;;;;;;5026631;28;20049;-84
2022/12/31 02:14:10;;;;;;;20.70;15.43;;;;;;;;;;5027611;28;20546;-83
2022/12/31 02:16:42;;;;;;;18.25;12.45;;;;;;;;;;5022465;28;20041;-84
2022/12/31 02:19:23;;;;;;;16.20;13.18;;;;;;;;;;5029573;28;20053;-84
2022/12/31 02:21:58;;;;;;;23.27;14.77;;;;;;;;;;5013479;28;20053;-82
2022/12/31 02:24:31;;;;;;;19.00;13.52;;;;;;;;;;5024751;28;20045;-85
2022/12/31 02:27:02;;;;;;;15.88;12.20;;;;;;;;;;5021356;28;20534;-84
2022/12/31 02:29:40;;;;;;;18.60;13.45;;;;;;;;;;5026864;28;20050;-85
2022/12/31 02:32:10;;;;;;;16.23;11.77;;;;;;;;;;5023757;28;20053;-84
2022/12/31 02:34:46;;;;;;;15.18;12.35;;;;;;;;;;5022953;28;20053;-83
2022/12/31 02:37:15;;;;;;;13.95;12.32;;;;;;;;;;5023426;28;20057;-84
2022/12/31 02:39:42;;;;;;;15.40;11.93;;;;;;;;;;5024161;28;20192;-84
2022/12/31 02:42:11;;;;;;;16.08;12.18;;;;;;;;;;5007546;28;20042;-83
2022/12/31 02:44:39;;;;;;;17.33;13.70;;;;;;;;;;5025339;28;20079;-83
2022/12/31 02:47:09;;;;;;;15.68;12.32;;;;;;;;;;5021017;28;20507;-83
2022/12/31 02:49:52;;;;;;;14.60;11.98;;;;;;;;;;5020455;28;20045;-83
2022/12/31 02:52:52;;;;;;;15.55;11.38;;;;;;;;;;5022908;28;20136;-84
2022/12/31 02:55:35;;;;;;;16.70;11.15;;;;;;;;;;4977691;28;20049;-84
2022/12/31 02:58:03;;;;;;;13.02;10.27;;;;;;;;;;4988301;28;20054;-83
2022/12/31 03:03:19;;;;;;;13.15;10.93;;;;;;;;;;5027471;28;20123;-84
2022/12/31 03:05:47;;;;;;;13.27;11.50;;;;;;;;;;5027165;28;20102;-84
2022/12/31 03:08:22;;;;;;;12.48;10.55;;;;;;;;;;5017771;28;20042;-84
2022/12/31 03:10:49;;;;;;;13.13;10.95;;;;;;;;;;5029388;28;20495;-84
2022/12/31 03:13:16;;;;;;;13.07;11.68;;;;;;;;;;5022995;28;20092;-84
2022/12/31 03:15:44;;;;;;;17.25;12.73;;;;;;;;;;5027867;28;20141;-84
2022/12/31 03:18:13;;;;;;;13.90;11.73;;;;;;;;;;5015607;28;20063;-84
2022/12/31 03:23:32;;;;;;;13.43;11.00;;;;;;;;;;5022805;28;20427;-84
2022/12/31 03:26:00;;;;;;;14.63;11.73;;;;;;;;;;5027916;28;20054;-84
2022/12/31 03:28:29;;;;;;;14.40;11.00;;;;;;;;;;5018989;28;20042;-83
2022/12/31 03:30:57;;;;;;;16.08;11.70;;;;;;;;;;5030166;28;20061;-82
2022/12/31 03:33:25;;;;;;;14.30;10.50;;;;;;;;;;5043412;28;20095;-84
2022/12/31 03:35:52;;;;;;;15.52;12.02;;;;;;;;;;5041751;28;20042;-83
2022/12/31 03:38:20;;;;;;;12.85;10.70;;;;;;;;;;5034762;28;20057;-84
2022/12/31 03:40:49;;;;;;;16.92;11.68;;;;;;;;;;5030553;28;20049;-83
2022/12/31 03:43:18;;;;;;;20.38;12.05;;;;;;;;;;5020002;28;20148;-83
2022/12/31 03:45:50;;;;;;;15.02;11.57;;;;;;;;;;5025451;28;20064;-84
2022/12/31 03:48:18;;;;;;;16.70;10.30;;;;;;;;;;5021744;28;20075;-83
2022/12/31 03:50:45;;;;;;;14.55;11.15;;;;;;;;;;5025007;28;20101;-84
2022/12/31 03:53:13;;;;;;;13.90;10.75;;;;;;;;;;5009853;28;20053;-83
2022/12/31 03:55:40;;;;;;;14.55;10.95;;;;;;;;;;5023650;28;20045;-84
2022/12/31 03:58:10;;;;;;;12.48;10.73;;;;;;;;;;5022843;28;20054;-83
2022/12/31 04:00:37;;;;;;;17.58;11.85;;;;;;;;;;5023325;28;20042;-84
2022/12/31 04:03:05;;;;;;;11.68;10.48;;;;;;;;;;5026180;28;20053;-83
2022/12/31 04:05:58;;;;;;;14.75;12.77;;;;;;;;;;5042115;22;20045;31
2022/12/31 04:08:45;;;;;;;;;;;;;;;;;;4970010;28;20046;-87
2022/12/31 04:11:13;;;;;;;16.08;10.50;;;;;;;;;;4977091;28;19949;-87
2022/12/31 04:13:49;;;;;;;16.77;12.32;;;;;;;;;;4986318;28;20049;-85
2022/12/31 04:16:17;;;;;;;15.32;12.32;;;;;;;;;;4986297;28;20069;-86
2022/12/31 04:18:44;;;;;;;17.17;12.02;;;;;;;;;;4993590;28;20404;-88
2022/12/31 04:24:14;;;;;;;17.05;13.35;;;;;;;;;;4977592;28;20169;-81
2022/12/31 04:26:47;;;;;;;;;;;;;;;;;;4975254;28;20054;-87
2022/12/31 04:29:19;;;;;;;13.65;10.80;;;;;;;;;;4980752;28;19928;-86
2022/12/31 04:31:50;;;;;;;15.25;12.35;;;;;;;;;;4987147;28;20415;-88
2022/12/31 04:34:18;;;;;;;16.42;12.75;;;;;;;;;;4993056;28;20075;-87
2022/12/31 04:36:46;;;;;;;15.55;12.32;;;;;;;;;;4993995;28;20077;-88
2022/12/31 04:39:16;;;;;;;17.23;12.85;;;;;;;;;;5000446;28;20046;-87
2022/12/31 04:41:44;;;;;;;20.38;13.88;;;;;;;;;;4988602;28;20045;-86
2022/12/31 04:44:12;;;;;;;17.90;13.45;;;;;;;;;;4994151;28;20062;-87
2022/12/31 04:46:40;;;;;;;17.50;12.40;;;;;;;;;;4997589;28;20038;-87
2022/12/31 04:49:22;;;;;;;16.38;12.75;;;;;;;;;;4996993;28;20051;-87
2022/12/31 04:52:00;;;;;;;15.68;12.00;;;;;;;;;;5007065;28;20050;-87
2022/12/31 04:54:28;;;;;;;16.95;12.48;;;;;;;;;;4997619;28;20047;-88
2022/12/31 04:56:57;;;;;;;15.93;12.27;;;;;;;;;;4994895;28;20085;-87
2022/12/31 04:59:25;;;;;;;17.58;12.38;;;;;;;;;;4983717;28;20137;-87
2022/12/31 05:01:54;;;;;;;20.35;12.07;;;;;;;;;;4973717;28;20138;-86
2022/12/31 05:04:21;;;;;;;16.40;12.63;;;;;;;;;;4979540;28;20110;-87
2022/12/31 05:06:52;;;;;;;21.77;12.93;;;;;;;;;;4984477;28;20046;-86
2022/12/31 05:09:26;;;;;;;16.75;12.52;;;;;;;;;;4985100;28;20097;-87
2022/12/31 05:11:53;;;;;;;15.88;11.55;;;;;;;;;;5006036;28;20160;-86
2022/12/31 05:14:22;;;;;;;16.27;12.68;;;;;;;;;;5003898;28;20133;-86
2022/12/31 05:16:50;;;;;;;17.73;13.20;;;;;;;;;;5009452;28;20557;-86
2022/12/31 05:19:18;;;;;;;17.45;11.95;;;;;;;;;;5004472;28;20689;-86
2022/12/31 05:24:35;;;;;;;18.70;13.40;;;;;;;;;;5001691;28;20043;-87
2022/12/31 05:27:03;;;;;;;16.73;12.77;;;;;;;;;;4991083;28;20046;-87
2022/12/31 05:29:31;;;;;;;14.90;12.07;;;;;;;;;;5010111;28;20109;-86
2022/12/31 05:31:59;;;;;;;14.13;11.38;;;;;;;;;;5007722;28;20056;-86
2022/12/31 05:34:29;;;;;;;16.80;12.15;;;;;;;;;;4997098;28;20054;-86
2022/12/31 05:36:57;;;;;;;17.15;12.82;;;;;;;;;;4990859;28;20054;-86
2022/12/31 05:39:30;;;;;;;16.95;11.80;;;;;;;;;;4987481;28;20053;-85
2022/12/31 05:41:58;;;;;;;19.65;12.98;;;;;;;;;;5001235;28;20100;-87
2022/12/31 05:44:52;;;;;;;14.80;10.65;;;;;;;;;;4994957;28;20044;-87
2022/12/31 05:47:51;;;;;;;15.43;11.30;;;;;;;;;;4950331;28;20466;-87
2022/12/31 05:51:19;;;;;;;14.00;11.70;;;;;;;;;;4966598;28;20050;-88
2022/12/31 05:53:49;;;;;;;21.70;14.52;;;;;;;;;;4947787;28;20043;-88
2022/12/31 05:56:19;;;;;;;21.75;13.93;;;;;;;;;;4957417;28;20050;-88
2022/12/31 05:58:50;;;;;;;22.95;14.43;;;;;;;;;;4954769;28;20054;-87
2022/12/31 06:01:18;;;;;;;18.63;13.35;;;;;;;;;;4967421;28;20070;-87
2022/12/31 06:03:46;;;;;;;18.42;12.98;;;;;;;;;;4951268;28;20165;-87
2022/12/31 06:06:18;;;;;;;16.27;12.90;;;;;;;;;;4968528;28;20054;-87
2022/12/31 06:08:52;;;;;;;18.45;12.80;;;;;;;;;;4969048;28;20500;-88
2022/12/31 06:11:21;;;;;;;16.45;12.82;;;;;;;;;;4967619;28;20046;-88
2022/12/31 06:13:49;;;;;;;17.90;12.43;;;;;;;;;;4967334;28;20129;-87
2022/12/31 06:16:16;;;;;;;16.00;12.48;;;;;;;;;;4971461;28;20173;-88
2022/12/31 06:18:49;;;;;;;18.02;12.40;;;;;;;;;;4968643;28;20058;-87
2022/12/31 06:21:20;;;;;;;14.85;12.13;;;;;;;;;;4971871;28;20074;-87
2022/12/31 06:23:48;;;;;;;19.65;13.27;;;;;;;;;;4954077;28;20051;-89
2022/12/31 06:26:19;;;;;;;20.07;13.63;;;;;;;;;;5003503;28;20065;-88
2022/12/31 06:28:50;;;;;;;15.38;13.68;;;;;;;;;;4993333;28;20041;-88
2022/12/31 06:31:18;;;;;;;17.33;13.25;;;;;;;;;;4984503;28;20131;-87
2022/12/31 06:33:46;;;;;;;18.50;13.93;;;;;;;;;;4988729;28;20054;-88
2022/12/31 06:36:14;;;;;;;17.95;14.02;;;;;;;;;;4985312;28;20152;-87
2022/12/31 06:38:48;;;;;;;18.80;14.55;;;;;;;;;;5001369;28;20137;-87
2022/12/31 06:41:17;;;;;;;24.60;15.13;;;;;;;;;;4999614;28;20064;-88
2022/12/31 06:43:45;;;;;;;21.25;15.05;;;;;;;;;;4993737;28;20046;-88
2022/12/31 06:46:15;;;;;;;19.98;13.52;;;;;;;;;;4993897;28;20046;-88
2022/12/31 06:48:45;;;;;;;;;;;;;;;;;;5005418;28;20042;-88
2022/12/31 06:51:15;;;;;;;17.70;13.88;;;;;;;;;;4994753;28;20682;-87
2022/12/31 06:53:48;;;;;;;23.27;16.05;;;;;;;;;;5002289;28;20046;-87
2022/12/31 06:56:17;;;;;;;24.17;17.98;;;;;;;;;;4983039;28;20424;-88
2022/12/31 06:58:49;;;;;;;16.70;14.30;;;;;;;;;;5001142;28;20542;-87
2022/12/31 07:01:45;;;;;;;18.05;16.10;;;;;;;;;;5004348;28;20423;-87
2022/12/31 07:04:29;;;;;;;76.05;68.88;;;;;;;;;;5006807;28;20042;-87
2022/12/31 07:07:19;;;;;;;24.58;17.20;;;;;;;;;;5005152;28;20117;-87
2022/12/31 07:09:53;;;;;;;21.40;15.63;;;;;;;;;;5002208;28;20042;-87
2022/12/31 07:12:45;;;;;;;27.02;17.70;;;;;;;;;;4993349;28;20069;-88
2022/12/31 07:15:19;;;;;;;23.60;15.73;;;;;;;;;;4980149;28;20050;-87
2022/12/31 07:17:56;;;;;;;20.80;14.02;;;;;;;;;;4999204;28;20492;-87
2022/12/31 07:20:25;;;;;;;26.05;15.93;;;;;;;;;;5004977;28;20049;-87
2022/12/31 07:22:59;;;;;;;22.20;14.55;;;;;;;;;;4992768;28;20148;-87
2022/12/31 07:25:44;;;;;;;22.50;15.35;;;;;;;;;;4989696;28;20050;-87
2022/12/31 07:28:20;;;;;;;24.52;15.98;;;;;;;;;;5002456;28;20093;-87
2022/12/31 07:31:06;;;;;;;21.92;14.80;;;;;;;;;;4995503;28;20030;-87
2022/12/31 07:33:48;;;;;;;21.67;15.35;;;;;;;;;;4998767;28;20050;-87
2022/12/31 07:37:22;;;;;;;21.05;14.98;;;;;;;;;;5003082;28;20161;-87
2022/12/31 07:40:56;;;;;;;19.25;14.55;;;;;;;;;;4997059;28;20046;-87
2022/12/31 07:43:38;;;;;;;22.45;14.85;;;;;;;;;;4984929;28;20086;-88
2022/12/31 07:46:17;;;;;;;23.75;15.48;;;;;;;;;;4988127;28;20057;-87
2022/12/31 07:48:46;;;;;;;23.92;16.10;;;;;;;;;;4989825;28;20074;-87
2022/12/31 07:51:14;;;;;;;20.30;14.52;;;;;;;;;;4989546;28;20053;-87
2022/12/31 07:53:44;;;;;;;28.45;17.17;;;;;;;;;;5006384;28;20137;-86
2022/12/31 07:56:12;;;;;;;27.38;16.50;;;;;;;;;;5005748;28;20491;-87
2022/12/31 07:59:13;;;;;;;27.80;17.13;;;;;;;;;;4995642;28;20563;-87
2022/12/31 08:02:07;;;;;;;23.13;15.57;;;;;;;;;;5002990;28;20141;-87
2022/12/31 08:05:00;;;;;;;22.73;15.73;;;;;;;;;;5000646;28;20035;-86
2022/12/31 08:07:31;;;;;;;23.00;15.43;;;;;;;;;;4993668;28;20050;-87
2022/12/31 08:10:15;;;;;;;20.92;13.75;;;;;;;;;;5008378;28;20454;-87
2022/12/31 08:12:52;;;;;;;25.10;15.40;;;;;;;;;;4988618;28;20042;-86
2022/12/31 08:15:42;;;;;;;20.40;13.98;;;;;;;;;;4986615;28;20050;-85
2022/12/31 08:18:17;;;;;;;20.88;14.23;;;;;;;;;;4993411;28;20073;-87
2022/12/31 08:20:53;;;;;;;24.00;15.23;;;;;;;;;;5004543;28;20066;-87
2022/12/31 08:23:31;;;;;;;28.40;15.52;;;;;;;;;;4994005;28;20089;-87
2022/12/31 08:26:17;;;;;;;28.33;16.25;;;;;;;;;;5006058;28;20046;-88
2022/12/31 08:28:49;;;;;;;25.30;16.83;;;;;;;;;;5006314;28;20038;-87
2022/12/31 08:31:37;;;;;;;23.20;15.57;;;;;;;;;;5016356;28;20060;-88
2022/12/31 08:34:58;;;;;;;20.88;14.80;;;;;;;;;;5007581;28;20073;-88
2022/12/31 08:37:45;;;;;;;22.58;16.08;;;;;;;;;;5015782;28;20433;-87
2022/12/31 08:40:38;;;;;;;24.42;16.17;;;;;;;;;;5026036;28;20038;-88
2022/12/31 08:43:34;;;;;;;24.55;14.80;;;;;;;;;;5030360;28;20072;-87
2022/12/31 08:46:27;;;;;;;19.38;15.13;;;;;;;;;;5010635;28;20170;-88
2022/12/31 08:49:34;;;;;;;;;;;;;;;;;;;;;
2022/12/31 08:53:06;;;;;;;24.20;15.77;;;;;;;;;;5010415;28;20102;-88
2022/12/31 08:56:46;;;;;;;25.52;15.75;;;;;;;;;;5007951;28;20053;-88
2022/12/31 08:59:49;;;;;;;21.13;13.25;;;;;;;;;;5006564;28;20049;-87
2022/12/31 09:02:32;;;;;;;29.23;16.92;;;;;;;;;;4994131;28;20500;-87
2022/12/31 09:05:06;;;;;;;26.30;16.70;;;;;;;;;;4993890;28;20519;-88
2022/12/31 09:07:40;;;;;;;23.15;16.10;;;;;;;;;;5003765;28;20377;-87
2022/12/31 09:10:20;;;;;;;30.48;17.67;;;;;;;;;;5002485;28;20541;-88
2022/12/31 09:13:02;;;;;;;24.08;16.33;;;;;;;;;;5005668;28;20046;-88
2022/12/31 09:15:50;;;;;;;32.85;21.42;;;;;;;;;;5002442;28;20141;-87
2022/12/31 09:18:27;;;;;;;31.40;18.60;;;;;;;;;;5010925;28;20045;-87
2022/12/31 09:21:11;;;;;;;25.95;17.77;;;;;;;;;;4994116;28;20050;-90
2022/12/31 09:24:04;;;;;;;27.15;17.40;;;;;;;;;;5011601;28;20052;-89
2022/12/31 09:26:48;;;;;;;23.02;15.35;;;;;;;;;;5012581;28;20049;-87
2022/12/31 09:29:35;;;;;;;29.52;18.10;;;;;;;;;;4994251;28;20514;-87
2022/12/31 09:32:05;;;;;;;29.00;16.45;;;;;;;;;;5003676;28;20038;-88
2022/12/31 09:34:52;;;;;;;28.15;17.20;;;;;;;;;;4994918;28;20100;-88
2022/12/31 09:38:19;;;;;;;26.13;17.45;;;;;;;;;;5007126;28;20045;-88
2022/12/31 09:41:35;;;;;;;22.80;17.45;;;;;;;;;;4999962;28;20050;-87
2022/12/31 09:44:28;;;;;;;23.85;16.92;;;;;;;;;;4963486;28;20056;-87
2022/12/31 09:47:23;;;;;;;24.60;15.75;;;;;;;;;;5010724;28;20050;-87
2022/12/31 09:50:16;;;;;;;21.10;15.73;;;;;;;;;;4998812;28;20046;-87
2022/12/31 09:52:52;;;;;;;23.02;16.13;;;;;;;;;;5000337;28;20541;-88
2022/12/31 09:55:31;;;;;;;23.90;17.77;;;;;;;;;;4995429;28;20054;-86
2022/12/31 09:58:17;;;;;;;20.30;14.00;;;;;;;;;;4994782;28;20049;-86
2022/12/31 10:01:10;;;;;;;22.23;16.98;;;;;;;;;;5009977;28;20052;-85
2022/12/31 10:04:03;;;;;;;21.60;15.60;;;;;;;;;;5010968;28;20050;-86
2022/12/31 10:06:31;;;;;;;24.25;15.30;;;;;;;;;;5081047;22;20969;-84
2022/12/31 10:09:01;;;;;;;21.10;15.02;;;;;;;;;;5026206;28;20053;-84
2022/12/31 10:11:49;;;;;;;20.30;15.02;;;;;;;;;;5032989;28;20055;-83
2022/12/31 10:14:44;;;;;;;23.38;15.48;;;;;;;;;;5034885;28;20088;-84
2022/12/31 10:17:22;;;;;;;22.45;15.45;;;;;;;;;;5035072;28;20045;-83
2022/12/31 10:20:10;;;;;;;25.30;17.40;;;;;;;;;;5032740;28;20081;-80
2022/12/31 10:22:38;;;;;;;20.23;15.43;;;;;;;;;;5033149;28;20762;-83
2022/12/31 10:25:05;;;;;;;28.92;16.77;;;;;;;;;;5034718;28;20404;-83
2022/12/31 10:27:51;;;;;;;24.48;16.48;;;;;;;;;;5034533;28;20050;-83
2022/12/31 10:30:20;;;;;;;23.00;16.02;;;;;;;;;;5036320;28;20141;-83
2022/12/31 10:32:48;;;;;;;22.25;14.85;;;;;;;;;;5036671;28;20522;-84
2022/12/31 10:35:39;;;;;;;27.45;17.55;;;;;;;;;;5045394;28;20038;-84
2022/12/31 10:38:25;;;;;;;21.02;15.45;;;;;;;;;;5030361;28;20046;-83
2022/12/31 10:41:05;;;;;;;24.27;16.13;;;;;;;;;;5011564;28;20042;-83
2022/12/31 10:43:52;;;;;;;23.98;16.88;;;;;;;;;;5012534;28;20100;-83
2022/12/31 10:46:44;;;;;;;20.33;13.30;;;;;;;;;;5012085;28;20285;-83
2022/12/31 10:49:14;;;;;;;17.73;14.50;;;;;;;;;;5012584;28;20065;-84
2022/12/31 10:52:00;;;;;;;19.20;14.80;;;;;;;;;;5007570;28;20042;-84
2022/12/31 10:54:31;;;;;;;21.63;14.38;;;;;;;;;;5019626;28;20523;-83
2022/12/31 10:57:17;;;;;;;18.75;13.63;;;;;;;;;;5016812;28;20045;-83
2022/12/31 10:59:48;;;;;;;21.75;14.88;;;;;;;;;;5031740;28;20053;-83
2022/12/31 11:02:33;;;;;;;14.48;12.18;;;;;;;;;;5031803;28;20049;-85
2022/12/31 11:05:10;;;;;;;19.58;14.02;;;;;;;;;;5038838;28;20064;-82
2022/12/31 11:07:45;;;;;;;20.38;14.13;;;;;;;;;;5046315;28;20049;-82
2022/12/31 11:10:13;;;;;;;17.35;12.32;;;;;;;;;;5033760;28;20078;-83
2022/12/31 11:12:59;;;;;;;19.58;13.07;;;;;;;;;;5012747;28;20054;-84
2022/12/31 11:15:39;;;;;;;22.15;15.38;;;;;;;;;;5013397;28;20085;-82
2022/12/31 11:18:33;;;;;;;16.38;12.55;;;;;;;;;;5005355;28;20049;-84
2022/12/31 11:21:06;;;;;;;16.63;11.90;;;;;;;;;;5011105;28;20573;-84
2022/12/31 11:23:48;;;;;;;16.45;11.57;;;;;;;;;;5011276;28;20077;-84
2022/12/31 11:26:41;;;;;;;14.45;11.68;;;;;;;;;;5010718;28;20069;-84
2022/12/31 11:29:12;;;;;;;11.73;10.50;;;;;;;;;;5009317;28;20136;-84
2022/12/31 11:31:48;;;;;;;13.35;10.80;;;;;;;;;;5010650;28;20701;-83
2022/12/31 11:34:34;;;;;;;15.85;10.90;;;;;;;;;;5010479;28;20099;-84
2022/12/31 11:37:17;;;;;;;12.85;10.40;;;;;;;;;;5011196;28;20061;-83
2022/12/31 11:39:49;;;;;;;15.32;11.02;;;;;;;;;;5005212;28;20436;-84
2022/12/31 11:42:21;;;;;;;13.35;10.70;;;;;;;;;;5014902;28;20062;-84
2022/12/31 11:44:57;;;;;;;14.95;11.27;;;;;;;;;;5011995;28;20110;-82
2022/12/31 11:47:24;;;;;;;13.65;11.55;;;;;;;;;;5010519;28;20412;-84
2022/12/31 11:50:10;;;;;;;13.35;11.38;;;;;;;;;;5009332;28;20049;-83
2022/12/31 11:52:56;;;;;;;11.75;10.32;;;;;;;;;;5011049;28;20056;-84
2022/12/31 11:55:32;;;;;;;11.48;9.95;;;;;;;;;;5010242;28;20527;-83
2022/12/31 11:58:07;;;;;;;11.07;9.95;;;;;;;;;;5009045;28;20061;-83
2022/12/31 12:00:35;;;;;;;10.70;9.38;;;;;;;;;;5010521;28;20061;-83
2022/12/31 12:03:04;;;;;;;10.65;9.55;;;;;;;;;;5008592;28;20528;-85
2022/12/31 12:05:31;;;;;;;12.55;10.82;;;;;;;;;;5010395;28;20500;-84
2022/12/31 12:07:58;;;;;;;15.45;11.13;;;;;;;;;;5010591;28;20072;-84
2022/12/31 12:10:27;;;;;;;15.55;11.63;;;;;;;;;;5011353;28;20121;-82
2022/12/31 12:13:10;;;;;;;14.80;10.95;;;;;;;;;;5010279;28;20046;-83
2022/12/31 12:15:37;;;;;;;13.55;11.15;;;;;;;;;;5002553;28;20052;-83
2022/12/31 12:18:08;;;;;;;11.35;10.18;;;;;;;;;;5010313;28;20508;-83
2022/12/31 12:20:40;;;;;;;10.40;9.03;;;;;;;;;;5010708;28;20046;-83
2022/12/31 12:23:26;;;;;;;9.85;8.93;;;;;;;;;;5011383;28;20042;-84
2022/12/31 12:25:53;;;;;;;9.35;8.43;;;;;;;;;;5011031;28;20119;-83
2022/12/31 12:28:26;;;;;;;9.73;8.82;;;;;;;;;;5010026;28;20054;-84
2022/12/31 12:30:54;;;;;;;;;;;;;;;;;;5011588;28;20160;-83
2022/12/31 12:33:22;;;;;;;11.55;9.48;;;;;;;;;;5008760;28;19928;-82
2022/12/31 12:35:49;;;;;;;11.10;9.93;;;;;;;;;;5016847;28;20045;-79
2022/12/31 12:38:22;;;;;;;10.55;9.55;;;;;;;;;;5033299;28;20054;-85
2022/12/31 12:40:53;;;;;;;11.77;9.40;;;;;;;;;;5032735;28;20108;-82
2022/12/31 12:43:28;;;;;;;11.20;10.05;;;;;;;;;;5016770;28;20065;-83
2022/12/31 12:45:58;;;;;;;10.77;8.93;;;;;;;;;;5016625;28;20058;-83
2022/12/31 12:48:32;;;;;;;13.15;9.98;;;;;;;;;;5013748;28;20606;-83
2022/12/31 12:50:59;;;;;;;10.25;9.20;;;;;;;;;;5010567;28;20045;-84
2022/12/31 12:53:50;;;;;;;11.23;10.07;;;;;;;;;;5014518;28;20467;-84
2022/12/31 12:56:29;;;;;;;12.52;9.70;;;;;;;;;;5013014;28;20042;-83
2022/12/31 12:59:27;;;;;;;10.40;9.40;;;;;;;;;;5012262;28;20069;-84
2022/12/31 13:01:55;;;;;;;12.13;10.90;;;;;;;;;;5004243;28;20571;-84
2022/12/31 13:04:41;;;;;;;11.82;10.60;;;;;;;;;;5011618;28;20110;-83
2022/12/31 13:07:27;;;;;;;11.05;9.95;;;;;;;;;;5012227;28;20052;-84
2022/12/31 13:10:07;;;;;;;12.95;10.20;;;;;;;;;;5006423;28;20092;-83
2022/12/31 13:12:37;;;;;;;10.90;9.45;;;;;;;;;;5010697;28;20100;-84
2022/12/31 13:15:29;;;;;;;11.85;10.40;;;;;;;;;;5012687;28;20042;-84
2022/12/31 13:18:01;;;;;;;10.95;9.85;;;;;;;;;;5016997;28;20085;-85
2022/12/31 13:20:32;;;;;;;11.90;8.88;;;;;;;;;;5014572;28;20073;-84
2022/12/31 13:23:11;;;;;;;10.23;8.32;;;;;;;;;;5007397;28;20132;-83
2022/12/31 13:25:49;;;;;;;10.40;8.88;;;;;;;;;;5009911;28;20129;-83
2022/12/31 13:28:18;;;;;;;9.00;8.10;;;;;;;;;;5004131;28;20415;-83
2022/12/31 13:30:48;;;;;;;9.45;8.05;;;;;;;;;;5010465;28;20140;-83
2022/12/31 13:33:15;;;;;;;12.23;8.57;;;;;;;;;;5005345;28;20042;-83
2022/12/31 13:35:42;;;;;;;11.77;8.90;;;;;;;;;;5006452;28;20128;-83
2022/12/31 13:38:16;;;;;;;9.38;8.35;;;;;;;;;;5001773;28;20057;-85
2022/12/31 13:41:04;;;;;;;10.93;9.77;;;;;;;;;;5001913;28;20594;-84
2022/12/31 13:43:35;;;;;;;22.85;16.83;;;;;;;;;;5011190;28;20049;-82
2022/12/31 13:46:09;;;;;;;14.57;12.33;;;;;;;;;;4998921;28;20046;-84
2022/12/31 13:48:40;;;;;;;30.25;25.67;;;;;;;;;;5005612;28;20486;-84
2022/12/31 13:51:11;;;;;;;17.77;14.00;;;;;;;;;;5005360;28;20048;-85
2022/12/31 13:53:46;;;;;;;62.17;50.97;;;;;;;;;;5008416;28;20088;-84
2022/12/31 13:56:16;;;;;;;62.38;49.50;;;;;;;;;;5009399;28;20546;-83
2022/12/31 13:59:01;;;;;;;34.90;27.95;;;;;;;;;;5013816;28;20053;-83
2022/12/31 14:01:38;;;;;;;31.60;24.90;;;;;;;;;;5008985;28;20056;-84
2022/12/31 14:04:25;;;;;;;45.90;34.90;;;;;;;;;;5009500;28;20045;-83
2022/12/31 14:07:04;;;;;;;18.88;14.02;;;;;;;;;;5011654;28;20046;-84
2022/12/31 14:09:33;;;;;;;25.00;19.67;;;;;;;;;;5015048;28;20050;-83
2022/12/31 14:12:02;;;;;;;21.35;16.27;;;;;;;;;;5022841;28;20072;-83
2022/12/31 14:14:29;;;;;;;17.40;14.05;;;;;;;;;;5011999;28;20054;-84
2022/12/31 14:17:11;;;;;;;17.83;15.98;;;;;;;;;;5007396;28;20038;-82
2022/12/31 14:19:45;;;;;;;17.70;15.13;;;;;;;;;;5001085;28;20045;-84
2022/12/31 14:22:31;;;;;;;22.85;19.48;;;;;;;;;;5000873;28;20160;-81
2022/12/31 14:24:59;;;;;;;57.83;45.28;;;;;;;;;;5006734;28;20107;-82
2022/12/31 14:27:29;;;;;;;21.88;17.83;;;;;;;;;;5007601;28;20046;-83
2022/12/31 14:29:58;;;;;;;16.52;12.93;;;;;;;;;;5010865;28;20048;-84
2022/12/31 14:32:44;;;;;;;15.15;13.25;;;;;;;;;;5009086;28;20046;-83
2022/12/31 14:35:27;;;;;;;13.13;11.48;;;;;;;;;;5007563;28;20049;-84
2022/12/31 14:38:05;;;;;;;18.65;14.38;;;;;;;;;;5008144;28;20085;-84
2022/12/31 14:40:52;;;;;;;43.38;23.20;;;;;;;;;;5006647;28;20623;-84
2022/12/31 14:43:38;;;;;;;29.73;19.33;;;;;;;;;;5007594;28;20045;-84
2022/12/31 14:46:31;;;;;;;73.20;41.58;;;;;;;;;;5001655;28;20072;-84
2022/12/31 14:49:01;;;;;;;58.10;35.63;;;;;;;;;;4998903;28;20056;-83
2022/12/31 14:51:29;;;;;;;47.78;28.70;;;;;;;;;;5008148;28;20054;-84
2022/12/31 14:53:57;;;;;;;38.75;24.83;;;;;;;;;;5003099;28;20046;-84
2022/12/31 14:56:37;;;;;;;26.30;18.05;;;;;;;;;;5007425;28;20049;-83
2022/12/31 14:59:21;;;;;;;27.15;17.30;;;;;;;;;;5007025;28;20069;-82
2022/12/31 15:01:48;;;;;;;19.20;16.25;;;;;;;;;;5006228;28;20515;-83
2022/12/31 15:04:15;;;;;;;16.55;14.70;;;;;;;;;;5007408;28;20046;-83
2022/12/31 15:06:50;;;;;;;18.67;14.35;;;;;;;;;;5009491;28;20046;-82
2022/12/31 15:09:47;;;;;;;19.60;15.93;;;;;;;;;;5007159;28;20046;-83
2022/12/31 15:12:24;;;;;;;16.83;13.55;;;;;;;;;;4996284;28;20053;-83
2022/12/31 15:15:10;;;;;;;17.55;15.32;;;;;;;;;;5005018;28;20113;-83
2022/12/31 15:17:41;;;;;;;26.77;18.98;;;;;;;;;;5008796;28;20042;-83
2022/12/31 15:20:27;;;;;;;17.98;15.95;;;;;;;;;;5014905;28;20050;-81
2022/12/31 15:22:56;;;;;;;23.88;20.42;;;;;;;;;;5012860;28;20492;-83